sensor_id;sensor_type;location;lat;lon;timestamp;P1;durP1;ratioP1;P2;durP2;ratioP2
75854;SDS011;64502;59.976;30.316;2023-07-31T00:00:04;15.55;;;7.70;;
75854;SDS011;64502;59.976;30.316;2023-07-31T00:02:30;19.88;;;7.68;;
75854;SDS011;64502;59.976;30.316;2023-07-31T00:04:55;16.55;;;8.07;;
75854;SDS011;64502;59.976;30.316;2023-07-31T00:07:21;14.50;;;8.77;;
75854;SDS011;64502;59.976;30.316;2023-07-31T00:09:47;14.10;;;7.18;;
75854;SDS011;64502;59.976;30.316;2023-07-31T00:12:12;13.55;;;7.43;;
75854;SDS011;64502;59.976;30.316;2023-07-31T00:14:38;15.65;;;7.80;;
75854;SDS011;64502;59.976;30.316;2023-07-31T00:17:03;16.98;;;7.78;;
75854;SDS011;64502;59.976;30.316;2023-07-31T00:19:29;14.45;;;8.38;;
75854;SDS011;64502;59.976;30.316;2023-07-31T00:21:55;13.75;;;7.45;;
75854;SDS011;64502;59.976;30.316;2023-07-31T00:24:20;14.68;;;8.00;;
75854;SDS011;64502;59.976;30.316;2023-07-31T00:26:45;13.55;;;8.10;;
75854;SDS011;64502;59.976;30.316;2023-07-31T00:29:11;14.18;;;7.38;;
75854;SDS011;64502;59.976;30.316;2023-07-31T00:31:36;13.00;;;7.40;;
75854;SDS011;64502;59.976;30.316;2023-07-31T00:34:01;14.57;;;7.95;;
75854;SDS011;64502;59.976;30.316;2023-07-31T00:36:27;11.60;;;7.38;;
75854;SDS011;64502;59.976;30.316;2023-07-31T00:38:52;12.32;;;7.47;;
75854;SDS011;64502;59.976;30.316;2023-07-31T00:41:18;11.07;;;6.07;;
75854;SDS011;64502;59.976;30.316;2023-07-31T00:43:43;14.23;;;7.85;;
75854;SDS011;64502;59.976;30.316;2023-07-31T00:46:09;17.95;;;7.85;;
75854;SDS011;64502;59.976;30.316;2023-07-31T00:48:34;12.80;;;7.80;;
75854;SDS011;64502;59.976;30.316;2023-07-31T00:51:00;12.77;;;7.50;;
75854;SDS011;64502;59.976;30.316;2023-07-31T00:53:26;11.40;;;7.65;;
75854;SDS011;64502;59.976;30.316;2023-07-31T00:55:52;11.73;;;7.15;;
75854;SDS011;64502;59.976;30.316;2023-07-31T00:58:18;11.75;;;7.95;;
75854;SDS011;64502;59.976;30.316;2023-07-31T01:00:43;12.55;;;6.80;;
75854;SDS011;64502;59.976;30.316;2023-07-31T01:03:09;9.60;;;6.75;;
75854;SDS011;64502;59.976;30.316;2023-07-31T01:08:04;9.20;;;6.43;;
75854;SDS011;64502;59.976;30.316;2023-07-31T01:10:42;13.68;;;7.63;;
75854;SDS011;64502;59.976;30.316;2023-07-31T01:13:13;14.20;;;6.90;;
75854;SDS011;64502;59.976;30.316;2023-07-31T01:15:39;12.43;;;7.55;;
75854;SDS011;64502;59.976;30.316;2023-07-31T01:18:05;11.27;;;6.97;;
75854;SDS011;64502;59.976;30.316;2023-07-31T01:20:30;11.82;;;6.85;;
75854;SDS011;64502;59.976;30.316;2023-07-31T01:28:55;9.70;;;6.55;;
75854;SDS011;64502;59.976;30.316;2023-07-31T01:31:22;14.82;;;6.90;;
75854;SDS011;64502;59.976;30.316;2023-07-31T01:33:50;10.70;;;7.63;;
75854;SDS011;64502;59.976;30.316;2023-07-31T01:36:17;11.63;;;7.43;;
75854;SDS011;64502;59.976;30.316;2023-07-31T01:38:43;10.05;;;6.22;;
75854;SDS011;64502;59.976;30.316;2023-07-31T01:41:08;11.98;;;6.70;;
75854;SDS011;64502;59.976;30.316;2023-07-31T01:43:34;10.80;;;6.97;;
75854;SDS011;64502;59.976;30.316;2023-07-31T01:45:59;11.15;;;6.45;;
75854;SDS011;64502;59.976;30.316;2023-07-31T01:48:25;12.88;;;6.10;;
75854;SDS011;64502;59.976;30.316;2023-07-31T01:50:50;10.85;;;6.25;;
75854;SDS011;64502;59.976;30.316;2023-07-31T01:53:15;10.40;;;5.80;;
75854;SDS011;64502;59.976;30.316;2023-07-31T01:55:41;9.93;;;6.65;;
75854;SDS011;64502;59.976;30.316;2023-07-31T01:58:06;13.18;;;6.97;;
75854;SDS011;64502;59.976;30.316;2023-07-31T02:00:32;10.57;;;6.50;;
75854;SDS011;64502;59.976;30.316;2023-07-31T02:02:57;11.02;;;7.03;;
75854;SDS011;64502;59.976;30.316;2023-07-31T02:05:24;12.48;;;6.55;;
75854;SDS011;64502;59.976;30.316;2023-07-31T02:07:50;12.18;;;7.22;;
75854;SDS011;64502;59.976;30.316;2023-07-31T02:10:16;11.27;;;7.10;;
75854;SDS011;64502;59.976;30.316;2023-07-31T02:12:41;13.32;;;7.18;;
75854;SDS011;64502;59.976;30.316;2023-07-31T02:15:07;11.52;;;7.40;;
75854;SDS011;64502;59.976;30.316;2023-07-31T02:17:32;15.68;;;7.38;;
75854;SDS011;64502;59.976;30.316;2023-07-31T02:19:58;9.45;;;6.70;;
75854;SDS011;64502;59.976;30.316;2023-07-31T02:22:23;12.55;;;8.05;;
75854;SDS011;64502;59.976;30.316;2023-07-31T02:24:49;15.95;;;7.35;;
75854;SDS011;64502;59.976;30.316;2023-07-31T02:27:14;14.65;;;7.97;;
75854;SDS011;64502;59.976;30.316;2023-07-31T02:29:39;15.80;;;7.10;;
75854;SDS011;64502;59.976;30.316;2023-07-31T02:32:05;12.68;;;7.78;;
75854;SDS011;64502;59.976;30.316;2023-07-31T02:34:31;16.05;;;7.78;;
75854;SDS011;64502;59.976;30.316;2023-07-31T02:36:56;11.88;;;7.45;;
75854;SDS011;64502;59.976;30.316;2023-07-31T02:39:21;14.13;;;7.60;;
75854;SDS011;64502;59.976;30.316;2023-07-31T02:41:47;12.02;;;7.63;;
75854;SDS011;64502;59.976;30.316;2023-07-31T02:44:12;14.13;;;8.63;;
75854;SDS011;64502;59.976;30.316;2023-07-31T02:46:39;15.57;;;8.07;;
75854;SDS011;64502;59.976;30.316;2023-07-31T02:49:05;13.40;;;7.72;;
75854;SDS011;64502;59.976;30.316;2023-07-31T02:51:30;14.23;;;7.25;;
75854;SDS011;64502;59.976;30.316;2023-07-31T02:53:56;18.70;;;7.13;;
75854;SDS011;64502;59.976;30.316;2023-07-31T02:56:21;14.68;;;6.38;;
75854;SDS011;64502;59.976;30.316;2023-07-31T02:58:46;11.32;;;6.80;;
75854;SDS011;64502;59.976;30.316;2023-07-31T03:01:12;20.60;;;8.02;;
75854;SDS011;64502;59.976;30.316;2023-07-31T03:03:37;15.20;;;8.27;;
75854;SDS011;64502;59.976;30.316;2023-07-31T03:06:03;18.80;;;7.50;;
75854;SDS011;64502;59.976;30.316;2023-07-31T03:08:28;13.98;;;7.57;;
75854;SDS011;64502;59.976;30.316;2023-07-31T03:10:54;14.48;;;7.75;;
75854;SDS011;64502;59.976;30.316;2023-07-31T03:13:19;14.70;;;7.05;;
75854;SDS011;64502;59.976;30.316;2023-07-31T03:15:44;12.88;;;6.43;;
75854;SDS011;64502;59.976;30.316;2023-07-31T03:18:10;11.02;;;5.85;;
75854;SDS011;64502;59.976;30.316;2023-07-31T03:20:35;9.27;;;6.05;;
75854;SDS011;64502;59.976;30.316;2023-07-31T03:23:01;11.48;;;6.75;;
75854;SDS011;64502;59.976;30.316;2023-07-31T03:25:26;10.95;;;7.13;;
75854;SDS011;64502;59.976;30.316;2023-07-31T03:27:52;10.27;;;6.05;;
75854;SDS011;64502;59.976;30.316;2023-07-31T03:30:17;11.43;;;5.88;;
75854;SDS011;64502;59.976;30.316;2023-07-31T03:32:42;10.70;;;6.47;;
75854;SDS011;64502;59.976;30.316;2023-07-31T03:35:08;11.05;;;6.47;;
75854;SDS011;64502;59.976;30.316;2023-07-31T03:37:33;9.63;;;6.60;;
75854;SDS011;64502;59.976;30.316;2023-07-31T03:39:59;11.25;;;6.35;;
75854;SDS011;64502;59.976;30.316;2023-07-31T03:42:24;9.75;;;6.25;;
75854;SDS011;64502;59.976;30.316;2023-07-31T03:44:50;11.73;;;6.65;;
75854;SDS011;64502;59.976;30.316;2023-07-31T03:47:15;9.00;;;6.75;;
75854;SDS011;64502;59.976;30.316;2023-07-31T03:49:41;11.68;;;6.20;;
75854;SDS011;64502;59.976;30.316;2023-07-31T03:52:06;8.57;;;5.88;;
75854;SDS011;64502;59.976;30.316;2023-07-31T03:54:32;8.10;;;5.43;;
75854;SDS011;64502;59.976;30.316;2023-07-31T03:56:57;9.10;;;4.78;;
75854;SDS011;64502;59.976;30.316;2023-07-31T03:59:22;9.93;;;6.57;;
75854;SDS011;64502;59.976;30.316;2023-07-31T04:01:48;8.60;;;5.70;;
75854;SDS011;64502;59.976;30.316;2023-07-31T04:04:13;12.13;;;6.10;;
75854;SDS011;64502;59.976;30.316;2023-07-31T04:06:39;9.15;;;5.82;;
75854;SDS011;64502;59.976;30.316;2023-07-31T04:09:04;9.30;;;5.32;;
75854;SDS011;64502;59.976;30.316;2023-07-31T04:11:29;10.70;;;4.80;;
75854;SDS011;64502;59.976;30.316;2023-07-31T04:13:55;7.30;;;5.00;;
75854;SDS011;64502;59.976;30.316;2023-07-31T04:16:20;11.82;;;5.55;;
75854;SDS011;64502;59.976;30.316;2023-07-31T04:18:46;9.32;;;4.68;;
75854;SDS011;64502;59.976;30.316;2023-07-31T04:21:11;12.13;;;5.10;;
75854;SDS011;64502;59.976;30.316;2023-07-31T04:23:37;16.17;;;5.18;;
75854;SDS011;64502;59.976;30.316;2023-07-31T04:26:03;17.88;;;5.15;;
75854;SDS011;64502;59.976;30.316;2023-07-31T04:28:28;16.38;;;5.18;;
75854;SDS011;64502;59.976;30.316;2023-07-31T04:30:56;14.98;;;5.38;;
75854;SDS011;64502;59.976;30.316;2023-07-31T04:33:22;18.55;;;5.85;;
75854;SDS011;64502;59.976;30.316;2023-07-31T04:35:50;21.20;;;6.63;;
75854;SDS011;64502;59.976;30.316;2023-07-31T04:38:19;17.90;;;5.55;;
75854;SDS011;64502;59.976;30.316;2023-07-31T04:40:46;17.90;;;5.22;;
75854;SDS011;64502;59.976;30.316;2023-07-31T04:43:12;13.82;;;5.43;;
75854;SDS011;64502;59.976;30.316;2023-07-31T04:45:37;11.00;;;4.55;;
75854;SDS011;64502;59.976;30.316;2023-07-31T04:48:03;12.10;;;5.82;;
75854;SDS011;64502;59.976;30.316;2023-07-31T04:50:28;13.32;;;5.55;;
75854;SDS011;64502;59.976;30.316;2023-07-31T04:52:55;17.05;;;6.18;;
75854;SDS011;64502;59.976;30.316;2023-07-31T04:55:21;10.57;;;5.20;;
75854;SDS011;64502;59.976;30.316;2023-07-31T04:57:46;12.18;;;4.82;;
75854;SDS011;64502;59.976;30.316;2023-07-31T05:00:12;12.45;;;5.25;;
75854;SDS011;64502;59.976;30.316;2023-07-31T05:02:37;13.40;;;5.05;;
75854;SDS011;64502;59.976;30.316;2023-07-31T05:05:02;11.90;;;5.82;;
75854;SDS011;64502;59.976;30.316;2023-07-31T05:07:28;13.70;;;5.30;;
75854;SDS011;64502;59.976;30.316;2023-07-31T05:09:53;11.73;;;5.28;;
75854;SDS011;64502;59.976;30.316;2023-07-31T05:12:19;11.48;;;5.60;;
75854;SDS011;64502;59.976;30.316;2023-07-31T05:14:44;12.27;;;4.90;;
75854;SDS011;64502;59.976;30.316;2023-07-31T05:17:10;7.45;;;4.32;;
75854;SDS011;64502;59.976;30.316;2023-07-31T05:19:35;10.40;;;4.22;;
75854;SDS011;64502;59.976;30.316;2023-07-31T05:22:00;8.10;;;4.75;;
75854;SDS011;64502;59.976;30.316;2023-07-31T05:24:26;6.80;;;3.88;;
75854;SDS011;64502;59.976;30.316;2023-07-31T05:26:51;7.75;;;3.80;;
75854;SDS011;64502;59.976;30.316;2023-07-31T05:29:17;7.30;;;3.30;;
75854;SDS011;64502;59.976;30.316;2023-07-31T05:31:42;7.68;;;3.50;;
75854;SDS011;64502;59.976;30.316;2023-07-31T05:34:08;7.57;;;4.03;;
75854;SDS011;64502;59.976;30.316;2023-07-31T05:36:33;8.75;;;3.63;;
75854;SDS011;64502;59.976;30.316;2023-07-31T05:38:58;11.30;;;4.22;;
75854;SDS011;64502;59.976;30.316;2023-07-31T05:41:24;8.23;;;3.40;;
75854;SDS011;64502;59.976;30.316;2023-07-31T05:43:50;7.38;;;3.92;;
75854;SDS011;64502;59.976;30.316;2023-07-31T05:46:16;5.00;;;2.95;;
75854;SDS011;64502;59.976;30.316;2023-07-31T05:48:42;6.55;;;2.60;;
75854;SDS011;64502;59.976;30.316;2023-07-31T05:51:07;5.50;;;1.98;;
75854;SDS011;64502;59.976;30.316;2023-07-31T05:53:32;4.35;;;2.40;;
75854;SDS011;64502;59.976;30.316;2023-07-31T05:55:58;5.43;;;2.17;;
75854;SDS011;64502;59.976;30.316;2023-07-31T05:58:23;5.38;;;2.38;;
75854;SDS011;64502;59.976;30.316;2023-07-31T06:00:49;4.32;;;3.15;;
75854;SDS011;64502;59.976;30.316;2023-07-31T06:03:14;4.47;;;2.42;;
75854;SDS011;64502;59.976;30.316;2023-07-31T06:05:40;6.25;;;2.65;;
75854;SDS011;64502;59.976;30.316;2023-07-31T06:08:05;6.18;;;2.28;;
75854;SDS011;64502;59.976;30.316;2023-07-31T06:10:31;6.45;;;3.00;;
75854;SDS011;64502;59.976;30.316;2023-07-31T06:12:56;6.55;;;3.00;;
75854;SDS011;64502;59.976;30.316;2023-07-31T06:15:22;6.45;;;2.88;;
75854;SDS011;64502;59.976;30.316;2023-07-31T06:17:47;8.30;;;1.85;;
75854;SDS011;64502;59.976;30.316;2023-07-31T06:20:13;5.03;;;2.65;;
75854;SDS011;64502;59.976;30.316;2023-07-31T06:22:38;4.63;;;3.05;;
75854;SDS011;64502;59.976;30.316;2023-07-31T06:25:04;5.68;;;3.03;;
75854;SDS011;64502;59.976;30.316;2023-07-31T06:27:30;7.22;;;2.72;;
75854;SDS011;64502;59.976;30.316;2023-07-31T06:29:56;9.77;;;3.28;;
75854;SDS011;64502;59.976;30.316;2023-07-31T06:32:21;7.05;;;2.53;;
75854;SDS011;64502;59.976;30.316;2023-07-31T06:34:47;5.78;;;2.80;;
75854;SDS011;64502;59.976;30.316;2023-07-31T06:37:12;7.40;;;3.28;;
75854;SDS011;64502;59.976;30.316;2023-07-31T06:39:38;5.00;;;2.97;;
75854;SDS011;64502;59.976;30.316;2023-07-31T06:42:03;6.32;;;2.88;;
75854;SDS011;64502;59.976;30.316;2023-07-31T06:44:29;4.85;;;1.75;;
75854;SDS011;64502;59.976;30.316;2023-07-31T06:46:54;7.97;;;1.80;;
75854;SDS011;64502;59.976;30.316;2023-07-31T06:49:20;3.95;;;2.13;;
75854;SDS011;64502;59.976;30.316;2023-07-31T06:51:45;4.05;;;2.00;;
75854;SDS011;64502;59.976;30.316;2023-07-31T06:54:11;3.75;;;2.67;;
75854;SDS011;64502;59.976;30.316;2023-07-31T06:56:36;4.10;;;1.85;;
75854;SDS011;64502;59.976;30.316;2023-07-31T06:59:01;6.95;;;1.80;;
75854;SDS011;64502;59.976;30.316;2023-07-31T07:01:28;3.40;;;1.98;;
75854;SDS011;64502;59.976;30.316;2023-07-31T07:03:54;5.72;;;2.38;;
75854;SDS011;64502;59.976;30.316;2023-07-31T07:06:19;4.85;;;2.03;;
75854;SDS011;64502;59.976;30.316;2023-07-31T07:08:45;4.88;;;2.67;;
75854;SDS011;64502;59.976;30.316;2023-07-31T07:11:11;3.63;;;2.10;;
75854;SDS011;64502;59.976;30.316;2023-07-31T07:13:36;4.30;;;2.35;;
75854;SDS011;64502;59.976;30.316;2023-07-31T07:16:01;4.25;;;2.10;;
75854;SDS011;64502;59.976;30.316;2023-07-31T07:18:27;3.95;;;2.10;;
75854;SDS011;64502;59.976;30.316;2023-07-31T07:20:53;3.70;;;2.08;;
75854;SDS011;64502;59.976;30.316;2023-07-31T07:23:19;4.82;;;2.22;;
75854;SDS011;64502;59.976;30.316;2023-07-31T07:25:46;4.00;;;2.20;;
75854;SDS011;64502;59.976;30.316;2023-07-31T07:28:12;6.25;;;2.45;;
75854;SDS011;64502;59.976;30.316;2023-07-31T07:30:38;4.32;;;2.20;;
75854;SDS011;64502;59.976;30.316;2023-07-31T07:33:03;3.83;;;2.05;;
75854;SDS011;64502;59.976;30.316;2023-07-31T07:35:29;5.28;;;2.10;;
75854;SDS011;64502;59.976;30.316;2023-07-31T07:37:54;4.90;;;2.78;;
75854;SDS011;64502;59.976;30.316;2023-07-31T07:40:20;5.93;;;2.15;;
75854;SDS011;64502;59.976;30.316;2023-07-31T07:42:46;3.97;;;2.17;;
75854;SDS011;64502;59.976;30.316;2023-07-31T07:45:12;6.65;;;2.15;;
75854;SDS011;64502;59.976;30.316;2023-07-31T07:47:38;3.83;;;2.38;;
75854;SDS011;64502;59.976;30.316;2023-07-31T07:50:06;5.78;;;3.08;;
75854;SDS011;64502;59.976;30.316;2023-07-31T07:52:31;7.20;;;2.45;;
75854;SDS011;64502;59.976;30.316;2023-07-31T07:54:57;6.70;;;2.83;;
75854;SDS011;64502;59.976;30.316;2023-07-31T07:57:22;8.15;;;2.20;;
75854;SDS011;64502;59.976;30.316;2023-07-31T07:59:48;5.53;;;2.00;;
75854;SDS011;64502;59.976;30.316;2023-07-31T08:02:13;4.38;;;1.77;;
75854;SDS011;64502;59.976;30.316;2023-07-31T08:04:38;3.92;;;1.98;;
75854;SDS011;64502;59.976;30.316;2023-07-31T08:07:04;5.35;;;1.80;;
75854;SDS011;64502;59.976;30.316;2023-07-31T08:09:30;5.43;;;1.90;;
75854;SDS011;64502;59.976;30.316;2023-07-31T08:11:55;3.38;;;2.00;;
75854;SDS011;64502;59.976;30.316;2023-07-31T08:14:23;4.28;;;2.17;;
75854;SDS011;64502;59.976;30.316;2023-07-31T08:16:48;4.40;;;1.85;;
75854;SDS011;64502;59.976;30.316;2023-07-31T08:19:14;6.38;;;2.00;;
75854;SDS011;64502;59.976;30.316;2023-07-31T08:21:39;4.20;;;1.75;;
75854;SDS011;64502;59.976;30.316;2023-07-31T08:24:04;4.00;;;1.95;;
75854;SDS011;64502;59.976;30.316;2023-07-31T08:26:30;6.88;;;1.50;;
75854;SDS011;64502;59.976;30.316;2023-07-31T08:28:55;3.38;;;1.98;;
75854;SDS011;64502;59.976;30.316;2023-07-31T08:31:22;5.10;;;2.10;;
75854;SDS011;64502;59.976;30.316;2023-07-31T08:33:47;4.88;;;1.92;;
75854;SDS011;64502;59.976;30.316;2023-07-31T08:36:13;3.85;;;2.20;;
75854;SDS011;64502;59.976;30.316;2023-07-31T08:38:38;4.88;;;1.75;;
75854;SDS011;64502;59.976;30.316;2023-07-31T08:41:04;4.63;;;1.60;;
75854;SDS011;64502;59.976;30.316;2023-07-31T08:43:30;5.70;;;1.90;;
75854;SDS011;64502;59.976;30.316;2023-07-31T08:45:57;3.67;;;1.88;;
75854;SDS011;64502;59.976;30.316;2023-07-31T08:48:23;6.63;;;2.00;;
75854;SDS011;64502;59.976;30.316;2023-07-31T08:50:50;3.97;;;1.83;;
75854;SDS011;64502;59.976;30.316;2023-07-31T08:53:16;3.10;;;1.70;;
75854;SDS011;64502;59.976;30.316;2023-07-31T08:55:42;5.75;;;2.70;;
75854;SDS011;64502;59.976;30.316;2023-07-31T08:58:09;3.90;;;2.13;;
75854;SDS011;64502;59.976;30.316;2023-07-31T09:00:37;3.75;;;1.70;;
75854;SDS011;64502;59.976;30.316;2023-07-31T09:03:08;2.97;;;1.85;;
75854;SDS011;64502;59.976;30.316;2023-07-31T09:05:35;5.00;;;1.80;;
75854;SDS011;64502;59.976;30.316;2023-07-31T09:08:02;3.13;;;2.20;;
75854;SDS011;64502;59.976;30.316;2023-07-31T09:10:30;2.95;;;1.80;;
75854;SDS011;64502;59.976;30.316;2023-07-31T09:12:56;6.72;;;2.17;;
75854;SDS011;64502;59.976;30.316;2023-07-31T09:15:23;5.43;;;1.80;;
75854;SDS011;64502;59.976;30.316;2023-07-31T09:17:50;4.72;;;1.80;;
75854;SDS011;64502;59.976;30.316;2023-07-31T09:20:24;4.72;;;1.20;;
75854;SDS011;64502;59.976;30.316;2023-07-31T09:22:50;5.00;;;2.13;;
75854;SDS011;64502;59.976;30.316;2023-07-31T09:30:13;2.75;;;1.40;;
75854;SDS011;64502;59.976;30.316;2023-07-31T09:32:39;4.07;;;1.85;;
75854;SDS011;64502;59.976;30.316;2023-07-31T09:35:27;4.70;;;2.55;;
75854;SDS011;64502;59.976;30.316;2023-07-31T09:37:57;3.63;;;1.90;;
75854;SDS011;64502;59.976;30.316;2023-07-31T09:40:25;2.72;;;1.52;;
75854;SDS011;64502;59.976;30.316;2023-07-31T09:42:56;2.90;;;1.90;;
75854;SDS011;64502;59.976;30.316;2023-07-31T09:45:23;7.30;;;1.90;;
75854;SDS011;64502;59.976;30.316;2023-07-31T09:47:49;3.50;;;1.35;;
75854;SDS011;64502;59.976;30.316;2023-07-31T09:50:15;6.13;;;1.63;;
75854;SDS011;64502;59.976;30.316;2023-07-31T09:52:43;5.10;;;1.95;;
75854;SDS011;64502;59.976;30.316;2023-07-31T09:55:09;3.17;;;1.50;;
75854;SDS011;64502;59.976;30.316;2023-07-31T09:57:39;5.95;;;1.77;;
75854;SDS011;64502;59.976;30.316;2023-07-31T10:00:09;4.22;;;1.52;;
75854;SDS011;64502;59.976;30.316;2023-07-31T10:02:36;2.88;;;1.92;;
75854;SDS011;64502;59.976;30.316;2023-07-31T10:05:03;4.72;;;1.63;;
75854;SDS011;64502;59.976;30.316;2023-07-31T10:07:30;2.58;;;1.67;;
75854;SDS011;64502;59.976;30.316;2023-07-31T10:09:58;2.95;;;1.40;;
75854;SDS011;64502;59.976;30.316;2023-07-31T10:12:25;4.60;;;1.40;;
75854;SDS011;64502;59.976;30.316;2023-07-31T10:14:54;4.55;;;1.55;;
75854;SDS011;64502;59.976;30.316;2023-07-31T10:17:21;4.30;;;1.85;;
75854;SDS011;64502;59.976;30.316;2023-07-31T10:19:50;4.03;;;2.00;;
75854;SDS011;64502;59.976;30.316;2023-07-31T10:22:16;3.40;;;2.00;;
75854;SDS011;64502;59.976;30.316;2023-07-31T10:24:43;4.20;;;1.60;;
75854;SDS011;64502;59.976;30.316;2023-07-31T10:27:10;4.72;;;2.17;;
75854;SDS011;64502;59.976;30.316;2023-07-31T10:29:37;3.92;;;1.95;;
75854;SDS011;64502;59.976;30.316;2023-07-31T10:32:04;4.43;;;2.10;;
75854;SDS011;64502;59.976;30.316;2023-07-31T10:34:35;3.65;;;2.28;;
75854;SDS011;64502;59.976;30.316;2023-07-31T10:42:32;5.30;;;1.95;;
75854;SDS011;64502;59.976;30.316;2023-07-31T10:45:01;2.50;;;1.77;;
75854;SDS011;64502;59.976;30.316;2023-07-31T10:47:28;4.22;;;2.88;;
75854;SDS011;64502;59.976;30.316;2023-07-31T10:50:10;2.85;;;1.80;;
75854;SDS011;64502;59.976;30.316;2023-07-31T10:52:43;2.78;;;1.85;;
75854;SDS011;64502;59.976;30.316;2023-07-31T10:55:13;2.78;;;1.90;;
75854;SDS011;64502;59.976;30.316;2023-07-31T10:58:06;2.78;;;2.15;;
75854;SDS011;64502;59.976;30.316;2023-07-31T11:00:33;5.25;;;1.98;;
75854;SDS011;64502;59.976;30.316;2023-07-31T11:03:05;3.30;;;1.55;;
75854;SDS011;64502;59.976;30.316;2023-07-31T11:05:50;2.30;;;1.73;;
75854;SDS011;64502;59.976;30.316;2023-07-31T11:08:31;3.65;;;2.45;;
75854;SDS011;64502;59.976;30.316;2023-07-31T11:18:17;3.33;;;2.05;;
75854;SDS011;64502;59.976;30.316;2023-07-31T11:20:43;4.68;;;2.10;;
75854;SDS011;64502;59.976;30.316;2023-07-31T11:23:09;3.75;;;2.15;;
75854;SDS011;64502;59.976;30.316;2023-07-31T11:25:36;5.00;;;2.08;;
75854;SDS011;64502;59.976;30.316;2023-07-31T11:28:06;3.47;;;2.20;;
75854;SDS011;64502;59.976;30.316;2023-07-31T11:30:36;3.85;;;1.98;;
75854;SDS011;64502;59.976;30.316;2023-07-31T11:33:03;4.88;;;2.38;;
75854;SDS011;64502;59.976;30.316;2023-07-31T11:35:34;5.15;;;2.30;;
75854;SDS011;64502;59.976;30.316;2023-07-31T11:38:01;3.65;;;2.17;;
75854;SDS011;64502;59.976;30.316;2023-07-31T11:40:27;4.32;;;2.15;;
75854;SDS011;64502;59.976;30.316;2023-07-31T11:42:57;5.18;;;2.50;;
75854;SDS011;64502;59.976;30.316;2023-07-31T11:45:29;4.25;;;2.67;;
75854;SDS011;64502;59.976;30.316;2023-07-31T11:47:55;6.30;;;2.60;;
75854;SDS011;64502;59.976;30.316;2023-07-31T11:50:22;6.97;;;2.67;;
75854;SDS011;64502;59.976;30.316;2023-07-31T11:52:50;2.70;;;2.15;;
75854;SDS011;64502;59.976;30.316;2023-07-31T11:55:24;3.55;;;2.20;;
75854;SDS011;64502;59.976;30.316;2023-07-31T11:57:51;2.63;;;2.22;;
75854;SDS011;64502;59.976;30.316;2023-07-31T12:00:18;4.05;;;2.63;;
75854;SDS011;64502;59.976;30.316;2023-07-31T12:02:43;3.95;;;1.80;;
75854;SDS011;64502;59.976;30.316;2023-07-31T12:05:10;3.13;;;2.17;;
75854;SDS011;64502;59.976;30.316;2023-07-31T12:07:52;4.15;;;2.90;;
75854;SDS011;64502;59.976;30.316;2023-07-31T12:10:27;4.00;;;3.15;;
75854;SDS011;64502;59.976;30.316;2023-07-31T12:13:09;6.95;;;2.95;;
75854;SDS011;64502;59.976;30.316;2023-07-31T12:15:41;5.20;;;2.92;;
75854;SDS011;64502;59.976;30.316;2023-07-31T12:18:10;4.40;;;2.17;;
75854;SDS011;64502;59.976;30.316;2023-07-31T12:20:43;5.93;;;3.72;;
75854;SDS011;64502;59.976;30.316;2023-07-31T12:23:22;4.43;;;2.42;;
75854;SDS011;64502;59.976;30.316;2023-07-31T12:28:42;5.07;;;2.33;;
75854;SDS011;64502;59.976;30.316;2023-07-31T12:31:10;4.18;;;2.70;;
75854;SDS011;64502;59.976;30.316;2023-07-31T12:33:37;4.70;;;2.10;;
75854;SDS011;64502;59.976;30.316;2023-07-31T12:36:04;4.47;;;1.90;;
75854;SDS011;64502;59.976;30.316;2023-07-31T12:38:33;4.70;;;2.72;;
75854;SDS011;64502;59.976;30.316;2023-07-31T12:40:59;2.97;;;2.30;;
75854;SDS011;64502;59.976;30.316;2023-07-31T12:43:24;5.28;;;2.53;;
75854;SDS011;64502;59.976;30.316;2023-07-31T12:45:50;5.13;;;2.58;;
75854;SDS011;64502;59.976;30.316;2023-07-31T12:48:16;4.45;;;2.88;;
75854;SDS011;64502;59.976;30.316;2023-07-31T12:50:41;4.20;;;2.92;;
75854;SDS011;64502;59.976;30.316;2023-07-31T12:53:07;4.72;;;2.78;;
75854;SDS011;64502;59.976;30.316;2023-07-31T12:55:33;3.53;;;2.80;;
75854;SDS011;64502;59.976;30.316;2023-07-31T12:58:00;6.00;;;2.88;;
75854;SDS011;64502;59.976;30.316;2023-07-31T13:00:25;3.92;;;3.28;;
75854;SDS011;64502;59.976;30.316;2023-07-31T13:02:51;4.90;;;2.55;;
75854;SDS011;64502;59.976;30.316;2023-07-31T13:05:17;3.65;;;2.45;;
75854;SDS011;64502;59.976;30.316;2023-07-31T13:07:44;4.70;;;2.72;;
75854;SDS011;64502;59.976;30.316;2023-07-31T13:10:10;4.97;;;2.45;;
75854;SDS011;64502;59.976;30.316;2023-07-31T13:12:35;4.43;;;2.33;;
75854;SDS011;64502;59.976;30.316;2023-07-31T13:15:01;4.40;;;3.45;;
75854;SDS011;64502;59.976;30.316;2023-07-31T13:17:26;4.35;;;2.72;;
75854;SDS011;64502;59.976;30.316;2023-07-31T13:19:52;4.35;;;2.55;;
75854;SDS011;64502;59.976;30.316;2023-07-31T13:22:17;5.88;;;2.90;;
75854;SDS011;64502;59.976;30.316;2023-07-31T13:24:43;3.72;;;2.67;;
75854;SDS011;64502;59.976;30.316;2023-07-31T13:27:08;3.78;;;2.17;;
75854;SDS011;64502;59.976;30.316;2023-07-31T13:29:34;3.42;;;2.35;;
75854;SDS011;64502;59.976;30.316;2023-07-31T13:31:59;4.43;;;2.70;;
75854;SDS011;64502;59.976;30.316;2023-07-31T13:34:24;4.78;;;2.40;;
75854;SDS011;64502;59.976;30.316;2023-07-31T13:36:50;6.38;;;2.45;;
75854;SDS011;64502;59.976;30.316;2023-07-31T13:39:15;4.63;;;2.17;;
75854;SDS011;64502;59.976;30.316;2023-07-31T13:41:41;3.90;;;2.30;;
75854;SDS011;64502;59.976;30.316;2023-07-31T13:44:07;3.42;;;2.55;;
75854;SDS011;64502;59.976;30.316;2023-07-31T13:46:32;3.28;;;2.22;;
75854;SDS011;64502;59.976;30.316;2023-07-31T13:49:00;4.35;;;2.72;;
75854;SDS011;64502;59.976;30.316;2023-07-31T13:51:26;6.10;;;2.60;;
75854;SDS011;64502;59.976;30.316;2023-07-31T13:53:53;4.32;;;2.55;;
75854;SDS011;64502;59.976;30.316;2023-07-31T13:56:19;5.20;;;2.92;;
75854;SDS011;64502;59.976;30.316;2023-07-31T13:58:44;4.78;;;3.08;;
75854;SDS011;64502;59.976;30.316;2023-07-31T14:01:10;4.50;;;2.65;;
75854;SDS011;64502;59.976;30.316;2023-07-31T14:03:35;3.20;;;2.70;;
75854;SDS011;64502;59.976;30.316;2023-07-31T14:06:01;3.35;;;2.50;;
75854;SDS011;64502;59.976;30.316;2023-07-31T14:08:26;4.97;;;3.05;;
75854;SDS011;64502;59.976;30.316;2023-07-31T14:10:51;3.50;;;2.55;;
75854;SDS011;64502;59.976;30.316;2023-07-31T14:13:17;4.60;;;3.08;;
75854;SDS011;64502;59.976;30.316;2023-07-31T14:15:42;4.85;;;2.97;;
75854;SDS011;64502;59.976;30.316;2023-07-31T14:18:08;3.97;;;2.85;;
75854;SDS011;64502;59.976;30.316;2023-07-31T14:20:34;5.80;;;3.00;;
75854;SDS011;64502;59.976;30.316;2023-07-31T14:23:00;12.18;;;3.47;;
75854;SDS011;64502;59.976;30.316;2023-07-31T14:25:26;3.92;;;2.75;;
75854;SDS011;64502;59.976;30.316;2023-07-31T14:27:52;5.80;;;2.90;;
75854;SDS011;64502;59.976;30.316;2023-07-31T14:30:17;4.45;;;2.78;;
75854;SDS011;64502;59.976;30.316;2023-07-31T14:32:43;9.32;;;3.83;;
75854;SDS011;64502;59.976;30.316;2023-07-31T14:35:09;4.22;;;3.05;;
75854;SDS011;64502;59.976;30.316;2023-07-31T14:37:38;6.00;;;3.25;;
75854;SDS011;64502;59.976;30.316;2023-07-31T14:40:08;7.10;;;3.00;;
75854;SDS011;64502;59.976;30.316;2023-07-31T14:42:34;6.22;;;3.47;;
75854;SDS011;64502;59.976;30.316;2023-07-31T14:45:00;6.00;;;3.63;;
75854;SDS011;64502;59.976;30.316;2023-07-31T14:47:26;6.85;;;2.90;;
75854;SDS011;64502;59.976;30.316;2023-07-31T14:49:52;6.70;;;2.60;;
75854;SDS011;64502;59.976;30.316;2023-07-31T14:52:18;6.93;;;3.30;;
75854;SDS011;64502;59.976;30.316;2023-07-31T14:54:44;6.93;;;3.35;;